Time;durP1;ratioP1;P1;durP2;ratioP2;P2;SDS_P1;SDS_P2;PMS_P1;PMS_P2;Temp;Humidity;BMP_temperature;BMP_pressure;BME280_temperature;BME280_humidity;BME280_pressure;Samples;Min_cycle;Max_cycle;Signal;HPM_P1;HPM_P2
2022/03/07 00:00:20;;;;;;;5.60;5.20;;;;;;;21.81;28.74;94700.31;6100999;28;104341;-55
2022/03/07 00:03:24;;;;;;;5.53;5.13;;;;;;;21.80;28.43;94704.09;6115138;28;104063;-55
2022/03/07 00:06:26;;;;;;;5.40;5.00;;;;;;;21.79;28.38;94707.84;6130378;28;104171;-55
2022/03/07 00:09:28;;;;;;;5.33;4.93;;;;;;;21.81;28.53;94708.31;6135295;28;103995;-55
2022/03/07 00:12:29;;;;;;;5.40;4.90;;;;;;;21.80;28.54;94712.84;6134396;28;103681;-55
2022/03/07 00:15:34;;;;;;;5.50;5.00;;;;;;;21.80;28.48;94712.06;6134682;28;104096;-56
2022/03/07 00:18:36;;;;;;;5.30;4.90;;;;;;;21.80;28.35;94706.75;6129156;28;104033;-55
2022/03/07 00:21:38;;;;;;;5.10;4.70;;;;;;;21.80;28.16;94706.75;6117271;28;103086;-56
2022/03/07 00:24:40;;;;;;;5.20;4.80;;;;;;;21.80;28.47;94696.88;6135123;28;103832;-56
2022/03/07 00:27:41;;;;;;;5.10;4.70;;;;;;;21.79;28.27;94697.97;6129519;28;103695;-56
2022/03/07 00:30:43;;;;;;;4.00;3.70;;;;;;;21.79;28.29;94699.84;6117586;28;103986;-55
2022/03/07 00:33:46;;;;;;;5.20;4.80;;;;;;;21.79;28.17;94700.63;6131863;28;103259;-57
2022/03/07 00:36:48;;;;;;;4.47;4.13;;;;;;;21.80;28.24;94701.41;6134228;28;103326;-56
2022/03/07 00:39:49;;;;;;;4.40;4.03;;;;;;;21.79;28.04;94692.66;6129302;28;103921;-56
2022/03/07 00:42:51;;;;;;;4.57;4.27;;;;;;;21.79;28.41;94695.31;6134734;28;103280;-55
2022/03/07 00:45:53;;;;;;;4.57;4.27;;;;;;;21.78;28.30;94685.78;6134395;28;103538;-57
2022/03/07 00:48:55;;;;;;;4.70;4.30;;;;;;;21.79;28.09;94681.25;6130040;28;103070;-56
2022/03/07 00:51:58;;;;;;;4.40;4.10;;;;;;;21.79;28.18;94676.69;6133634;28;103529;-56
2022/03/07 00:55:00;;;;;;;5.00;4.60;;;;;;;21.78;28.14;94677.00;6133608;28;105598;-57
2022/03/07 00:58:02;;;;;;;4.60;4.20;;;;;;;21.76;28.23;94674.66;6133260;28;103341;-56
2022/03/07 01:01:04;;;;;;;4.33;3.93;;;;;;;21.78;28.07;94675.13;6128917;28;103385;-55
2022/03/07 01:04:06;;;;;;;4.20;3.90;;;;;;;21.76;28.02;94669.34;6132992;28;103203;-56
2022/03/07 01:07:08;;;;;;;4.57;4.27;;;;;;;21.77;28.07;94665.59;6111876;28;102805;-55
2022/03/07 01:10:11;;;;;;;4.57;4.27;;;;;;;21.78;28.02;94661.06;6120130;28;103040;-57
2022/03/07 01:13:13;;;;;;;4.40;4.10;;;;;;;21.78;28.15;94653.06;6110247;28;103154;-56
2022/03/07 01:16:15;;;;;;;4.17;3.87;;;;;;;21.77;27.81;94657.63;6120495;28;103066;-56
2022/03/07 01:19:17;;;;;;;4.40;4.00;;;;;;;21.77;28.10;94659.50;6117497;28;103347;-56
2022/03/07 01:22:18;;;;;;;4.43;4.13;;;;;;;21.78;27.97;94661.06;6115239;28;104144;-56
2022/03/07 01:25:20;;;;;;;4.53;4.23;;;;;;;21.78;28.14;94664.50;6112738;28;104079;-56
2022/03/07 01:28:22;;;;;;;4.13;3.83;;;;;;;21.78;27.93;94664.50;6110517;28;104141;-56
2022/03/07 01:31:24;;;;;;;4.33;4.03;;;;;;;21.78;28.12;94667.16;6111282;28;103414;-55
2022/03/07 01:34:26;;;;;;;4.20;3.90;;;;;;;21.77;27.83;94668.25;6123931;28;103902;-55
2022/03/07 01:37:28;;;;;;;4.50;4.20;;;;;;;21.79;27.77;94662.63;6118352;28;103022;-55
2022/03/07 01:40:30;;;;;;;4.63;4.23;;;;;;;21.79;27.96;94657.31;6082339;28;104177;-55
2022/03/07 01:43:32;;;;;;;3.93;3.63;;;;;;;21.78;28.09;94658.41;6103374;28;103097;-55
2022/03/07 01:46:33;;;;;;;3.63;3.43;;;;;;;21.78;28.07;94658.41;6117667;28;103093;-56
2022/03/07 01:49:35;;;;;;;4.10;3.80;;;;;;;21.78;27.86;94656.53;6095680;28;103329;-55
2022/03/07 01:52:42;;;;;;;4.43;4.07;;;;;;;21.77;27.92;94649.63;6113701;28;103087;-56
2022/03/07 01:55:43;;;;;;;3.70;3.40;;;;;;;21.78;27.77;94656.53;6103764;28;103594;-55
2022/03/07 01:58:45;;;;;;;4.00;3.70;;;;;;;21.79;27.88;94655.44;6108255;28;103399;-56
2022/03/07 02:01:47;;;;;;;3.80;3.50;;;;;;;21.77;27.82;94657.63;6109089;28;102956;-55
2022/03/07 02:04:50;;;;;;;3.80;3.50;;;;;;;21.78;27.84;94651.19;6127473;28;104041;-55
2022/03/07 02:07:55;;;;;;;4.40;4.10;;;;;;;21.79;27.86;94652.00;6118442;28;103100;-56
2022/03/07 02:10:57;;;;;;;3.70;3.40;;;;;;;21.77;27.99;94652.28;6118754;28;103648;-56
2022/03/07 02:14:19;;;;;;;4.20;3.90;;;;;;;21.78;27.90;94650.41;6131319;28;103222;-57
2022/03/07 02:17:20;;;;;;;3.77;3.47;;;;;;;21.78;27.75;94645.09;6128415;28;103902;-56
2022/03/07 02:20:23;;;;;;;3.67;3.37;;;;;;;21.78;27.73;94656.53;6133352;28;104130;-56
2022/03/07 02:23:25;;;;;;;4.10;3.80;;;;;;;21.78;27.66;94651.19;6132537;28;104331;-56
2022/03/07 02:26:26;;;;;;;3.77;3.47;;;;;;;21.77;27.63;94648.84;6133393;28;103399;-56
2022/03/07 02:29:30;;;;;;;3.40;3.17;;;;;;;21.78;27.56;94650.41;6127303;28;104387;-56
2022/03/07 02:32:32;;;;;;;3.13;2.93;;;;;;;21.76;27.76;94648.06;6131660;28;104035;-55
2022/03/07 02:35:34;;;;;;;4.13;3.83;;;;;;;21.77;27.69;94654.16;6118983;28;103398;-55
2022/03/07 02:38:36;;;;;;;3.80;3.50;;;;;;;21.76;27.70;94647.28;6137401;28;103994;-56
2022/03/07 02:41:40;;;;;;;3.53;3.33;;;;;;;21.77;27.79;94643.53;6131562;28;103115;-58
2022/03/07 02:44:41;;;;;;;3.80;3.50;;;;;;;21.76;27.67;94653.38;6137329;28;103394;-56
2022/03/07 02:47:43;;;;;;;3.70;3.40;;;;;;;21.77;27.61;94648.84;6137619;28;104061;-56
2022/03/07 02:50:45;;;;;;;3.07;2.87;;;;;;;21.77;27.62;94649.63;6130688;28;103104;-56
2022/03/07 02:53:49;;;;;;;3.50;3.20;;;;;;;21.77;27.53;94649.63;6132847;28;103842;-56
2022/03/07 02:56:50;;;;;;;3.30;3.10;;;;;;;21.77;27.52;94654.94;6136348;28;103423;-56
2022/03/07 02:59:52;;;;;;;3.23;3.03;;;;;;;21.76;27.40;94650.72;6136021;28;102998;-56
2022/03/07 03:02:54;;;;;;;3.30;3.10;;;;;;;21.77;27.48;94640.88;6131371;28;102944;-55
2022/03/07 03:05:56;;;;;;;3.77;3.47;;;;;;;21.77;27.72;94651.50;6136273;28;104509;-56
2022/03/07 03:08:58;;;;;;;3.63;3.40;;;;;;;21.76;27.72;94653.38;6136490;28;104111;-56
2022/03/07 03:12:00;;;;;;;3.47;3.17;;;;;;;21.77;27.92;94654.16;6130083;28;103294;-56
2022/03/07 03:15:02;;;;;;;3.20;3.00;;;;;;;21.76;27.44;94657.91;6135218;28;103001;-56
2022/03/07 03:18:04;;;;;;;3.60;3.40;;;;;;;21.77;27.66;94657.63;6135838;28;103562;-56
2022/03/07 03:21:05;;;;;;;3.40;3.10;;;;;;;21.77;27.53;94651.50;6136884;28;103920;-55
2022/03/07 03:24:07;;;;;;;3.43;3.10;;;;;;;21.77;27.60;94660.28;6130009;28;103070;-55
2022/03/07 03:27:09;;;;;;;2.90;2.70;;;;;;;21.77;27.54;94657.63;6136368;28;103899;-55
2022/03/07 03:30:12;;;;;;;3.47;3.17;;;;;;;21.77;27.47;94657.63;6122733;28;104369;-56
2022/03/07 03:33:14;;;;;;;3.30;3.10;;;;;;;21.77;27.55;94660.28;6135090;28;104605;-56
2022/03/07 03:36:15;;;;;;;3.17;2.97;;;;;;;21.77;27.66;94660.28;6130240;28;103343;-56
2022/03/07 03:39:17;;;;;;;3.00;2.80;;;;;;;21.77;27.87;94660.28;6135930;28;104080;-55
2022/03/07 03:42:21;;;;;;;2.67;2.47;;;;;;;21.78;27.37;94666.38;6135434;28;103546;-56
2022/03/07 03:45:23;;;;;;;3.00;2.80;;;;;;;21.77;27.49;94662.16;6130765;28;104309;-56
2022/03/07 03:48:25;;;;;;;3.60;3.30;;;;;;;21.78;27.31;94655.75;6135772;28;104524;-56
2022/03/07 03:51:26;;;;;;;3.07;2.87;;;;;;;21.78;27.39;94661.84;6136539;28;104376;-56
2022/03/07 03:54:28;;;;;;;2.90;2.70;;;;;;;21.79;27.19;94654.66;6133126;28;104255;-56
2022/03/07 03:57:30;;;;;;;3.20;2.93;;;;;;;21.80;27.39;94657.00;6122471;28;104417;-55
2022/03/07 04:00:32;;;;;;;3.03;2.83;;;;;;;21.77;27.46;94660.28;6140508;28;104259;-57
2022/03/07 04:03:34;;;;;;;3.10;2.90;;;;;;;21.79;27.27;94662.63;6135083;28;104323;-57
2022/03/07 04:06:36;;;;;;;3.00;2.80;;;;;;;21.79;27.42;94662.63;6132189;28;103995;-56
2022/03/07 04:09:38;;;;;;;2.90;2.70;;;;;;;21.79;27.28;94660.75;6149570;28;103336;-56
2022/03/07 04:12:41;;;;;;;3.40;3.20;;;;;;;21.80;27.56;94659.66;6138636;28;103395;-55
2022/03/07 04:15:42;;;;;;;2.70;2.50;;;;;;;21.80;27.37;94664.97;6137598;28;103267;-56
2022/03/07 04:18:44;;;;;;;2.97;2.77;;;;;;;21.81;27.52;94669.19;6132722;28;103373;-54
2022/03/07 04:21:46;;;;;;;3.37;2.90;;;;;;;21.79;27.41;94673.25;6136259;28;104423;-55
2022/03/07 04:24:48;;;;;;;3.33;3.13;;;;;;;21.79;27.24;94668.72;6134647;28;103414;-54
2022/03/07 04:27:50;;;;;;;3.20;3.00;;;;;;;21.78;27.61;94667.16;6135106;28;104450;-55
2022/03/07 04:30:52;;;;;;;2.90;2.70;;;;;;;21.78;27.73;94667.16;6129855;28;104039;-55
2022/03/07 04:33:54;;;;;;;3.33;2.77;;;;;;;21.79;27.59;94671.38;6134924;28;103623;-57
2022/03/07 04:36:56;;;;;;;2.80;2.60;;;;;;;21.78;27.63;94675.13;6133866;28;103203;-54
2022/03/07 04:39:59;;;;;;;3.50;3.20;;;;;;;21.78;27.58;94672.47;6131309;28;103970;-55
2022/03/07 04:43:01;;;;;;;3.10;2.80;;;;;;;21.87;27.74;94675.97;6121827;28;104479;-57
2022/03/07 04:46:04;;;;;;;2.80;2.60;;;;;;;21.97;28.04;94674.91;6125828;28;102980;-56
2022/03/07 04:49:09;;;;;;;3.30;3.00;;;;;;;22.00;28.37;94671.63;6134596;28;104249;-56
2022/03/07 04:52:11;;;;;;;3.00;2.80;;;;;;;22.12;28.77;94673.75;6129334;28;103008;-56
2022/03/07 04:55:13;;;;;;;2.80;2.60;;;;;;;22.15;29.67;94675.78;6134314;28;104068;-56
2022/03/07 04:58:15;;;;;;;3.20;2.90;;;;;;;22.04;30.86;94679.78;6134362;28;103331;-55
2022/03/07 05:01:17;;;;;;;5.53;3.50;;;;;;;21.88;30.47;94674.88;6130944;28;103205;-55
2022/03/07 05:04:19;;;;;;;3.70;3.40;;;;;;;21.97;30.98;94672.25;6127912;28;102995;-56
2022/03/07 05:07:21;;;;;;;3.57;3.30;;;;;;;21.94;30.95;94672.84;6111427;28;103271;-56
2022/03/07 05:10:23;;;;;;;3.37;3.07;;;;;;;21.99;30.05;94678.03;6110361;28;103978;-55
2022/03/07 05:13:31;;;;;;;3.20;2.80;;;;;;;22.09;30.27;94680.47;6128178;28;103276;-55
2022/03/07 05:16:33;;;;;;;3.40;3.10;;;;;;;22.14;29.85;94684.84;6124312;28;103089;-54
2022/03/07 05:19:35;;;;;;;3.40;3.10;;;;;;;22.18;29.16;94675.19;6113689;28;103096;-55
2022/03/07 05:22:38;;;;;;;3.40;3.20;;;;;;;22.29;28.72;94681.00;6119909;28;103223;-56
2022/03/07 05:25:39;;;;;;;4.60;3.27;;;;;;;22.14;28.70;94679.53;6102490;28;103444;-54
2022/03/07 05:28:41;;;;;;;3.30;3.00;;;;;;;22.09;29.07;94687.66;6109880;28;103323;-55
2022/03/07 05:31:43;;;;;;;3.93;2.90;;;;;;;22.07;28.70;94673.88;6109051;28;104394;-55
2022/03/07 05:34:45;;;;;;;3.10;2.90;;;;;;;22.07;28.81;94679.19;6109566;28;103159;-54
2022/03/07 05:37:47;;;;;;;3.73;3.27;;;;;;;22.07;28.21;94681.88;6102967;28;103214;-55
2022/03/07 05:40:49;;;;;;;3.00;2.80;;;;;;;22.08;28.53;94676.22;6107532;28;104089;-55
2022/03/07 05:43:50;;;;;;;3.20;3.00;;;;;;;22.11;28.55;94677.50;6108043;28;104033;-55
2022/03/07 05:46:52;;;;;;;2.87;2.67;;;;;;;22.13;28.25;94677.97;6102286;28;104188;-56
2022/03/07 05:49:54;;;;;;;2.80;2.60;;;;;;;22.15;28.08;94681.88;6108170;28;103015;-55
2022/03/07 05:52:56;;;;;;;3.27;2.97;;;;;;;22.15;27.91;94673.13;6110180;28;103995;-56
2022/03/07 05:55:59;;;;;;;3.10;2.80;;;;;;;22.16;27.82;94675.47;6109316;28;104195;-55
2022/03/07 05:59:01;;;;;;;2.63;2.43;;;;;;;22.18;28.09;94675.19;6104620;28;103867;-55
2022/03/07 06:02:03;;;;;;;2.90;2.70;;;;;;;22.19;27.85;94679.41;6108518;28;106277;-55
2022/03/07 06:05:06;;;;;;;2.50;2.30;;;;;;;22.19;27.94;94679.41;6127250;28;104127;-55
2022/03/07 06:08:08;;;;;;;2.20;2.10;;;;;;;22.18;27.71;94688.50;6129119;28;103849;-56
2022/03/07 06:11:09;;;;;;;2.77;2.57;;;;;;;22.19;27.64;94684.72;6133153;28;103153;-55
2022/03/07 06:14:11;;;;;;;2.70;2.50;;;;;;;22.18;27.51;94685.81;6133377;28;103022;-55
2022/03/07 06:17:13;;;;;;;2.93;2.73;;;;;;;22.18;27.43;94685.81;6133299;28;103569;-56
2022/03/07 06:20:15;;;;;;;2.60;2.40;;;;;;;22.16;27.59;94683.44;6129133;28;105540;-55
2022/03/07 06:23:17;;;;;;;2.40;2.20;;;;;;;22.17;27.61;94684.22;6133801;28;104036;-55
2022/03/07 06:26:19;;;;;;;2.70;2.50;;;;;;;22.15;27.39;94692.53;6133528;28;104098;-55
2022/03/07 06:29:21;;;;;;;2.67;2.50;;;;;;;22.14;27.31;94695.50;6133289;28;103046;-55
2022/03/07 06:32:24;;;;;;;2.57;2.37;;;;;;;22.13;27.50;94697.38;6127306;28;103449;-55
2022/03/07 06:35:26;;;;;;;2.23;2.13;;;;;;;22.13;27.57;94692.06;6133477;28;103471;-55
2022/03/07 06:38:28;;;;;;;2.33;2.23;;;;;;;22.12;27.76;94697.69;6132814;28;103457;-55
2022/03/07 06:41:29;;;;;;;2.00;1.90;;;;;;;22.10;27.40;94695.34;6129159;28;103904;-54
2022/03/07 06:44:33;;;;;;;2.40;2.23;;;;;;;22.09;27.65;94693.75;6133399;28;103495;-55
2022/03/07 06:47:35;;;;;;;2.40;2.30;;;;;;;22.10;27.45;94692.66;6132695;28;103480;-55
2022/03/07 06:50:37;;;;;;;2.80;2.43;;;;;;;22.10;27.39;94690.00;6133190;28;104096;-55
2022/03/07 06:53:39;;;;;;;2.57;2.37;;;;;;;22.10;27.38;94686.56;6126736;28;104342;-55
2022/03/07 06:56:40;;;;;;;2.40;2.30;;;;;;;22.08;27.22;94691.41;6133157;28;103896;-55
2022/03/07 06:59:42;;;;;;;2.73;2.53;;;;;;;22.08;27.34;94692.19;6133188;28;103257;-55
2022/03/07 07:02:45;;;;;;;2.73;2.53;;;;;;;22.08;27.26;94689.53;6114569;28;103955;-55
2022/03/07 07:05:47;;;;;;;2.33;2.23;;;;;;;22.06;27.11;94689.06;6127394;28;103253;-55
2022/03/07 07:08:49;;;;;;;2.77;2.57;;;;;;;22.10;27.00;94691.88;6132765;28;104448;-54
2022/03/07 07:11:51;;;;;;;2.70;2.50;;;;;;;22.10;27.44;94699.88;6133192;28;103145;-55
2022/03/07 07:14:53;;;;;;;2.87;2.67;;;;;;;22.11;27.38;94693.44;6127418;28;105888;-55
2022/03/07 07:17:54;;;;;;;2.80;2.60;;;;;;;22.14;27.18;94695.50;6132676;28;104164;-54
2022/03/07 07:20:56;;;;;;;2.90;2.70;;;;;;;22.20;27.28;94692.41;6134798;28;103653;-55
2022/03/07 07:23:58;;;;;;;2.90;2.70;;;;;;;22.24;27.34;94703.22;6136300;28;102994;-55
2022/03/07 07:26:59;;;;;;;2.63;2.43;;;;;;;22.25;27.07;94702.13;6130894;28;103209;-55
2022/03/07 07:30:03;;;;;;;2.37;2.20;;;;;;;22.22;26.90;94697.41;6136616;28;104048;-55
2022/03/07 07:33:05;;;;;;;2.77;2.57;;;;;;;22.18;26.96;94697.25;6136586;28;103648;-55
2022/03/07 07:36:07;;;;;;;2.77;2.57;;;;;;;22.20;27.19;94703.03;6135381;28;103445;-54
2022/03/07 07:39:09;;;;;;;2.40;2.20;;;;;;;22.19;27.09;94704.16;6132687;28;104194;-56
2022/03/07 07:42:11;;;;;;;2.40;2.30;;;;;;;22.19;26.90;94706.81;6136394;28;102750;-56
2022/03/07 07:45:13;;;;;;;2.50;2.30;;;;;;;22.19;27.02;94706.81;6136175;28;103252;-56
2022/03/07 07:48:14;;;;;;;2.53;2.37;;;;;;;22.22;27.13;94713.38;6130677;28;103005;-56
2022/03/07 07:51:16;;;;;;;2.50;2.30;;;;;;;22.21;27.12;94712.59;6135159;28;104037;-56
2022/03/07 07:54:18;;;;;;;2.47;2.27;;;;;;;22.24;27.13;94710.41;6136374;28;104173;-56
2022/03/07 07:57:20;;;;;;;2.60;2.40;;;;;;;22.26;26.73;94709.00;6135971;28;103153;-56
2022/03/07 08:00:22;;;;;;;2.70;2.50;;;;;;;22.28;27.15;94709.47;6130912;28;104187;-56
2022/03/07 08:03:24;;;;;;;2.47;2.30;;;;;;;22.27;26.81;94715.91;6135443;28;104142;-56
2022/03/07 08:06:26;;;;;;;2.70;2.50;;;;;;;22.24;27.16;94711.19;6135900;28;103101;-56
2022/03/07 08:09:27;;;;;;;2.77;2.57;;;;;;;22.23;27.08;94712.28;6130289;28;103003;-56
2022/03/07 08:12:29;;;;;;;2.47;2.27;;;;;;;22.20;26.93;94711.03;6117975;28;103285;-56
2022/03/07 08:15:31;;;;;;;2.20;2.10;;;;;;;22.19;26.75;94714.78;6135475;28;103564;-56
2022/03/07 08:18:33;;;;;;;2.60;2.40;;;;;;;22.18;26.92;94712.44;6136172;28;104005;-55
2022/03/07 08:21:35;;;;;;;2.67;2.47;;;;;;;22.17;26.99;94708.19;6130393;28;105091;-56
2022/03/07 08:24:36;;;;;;;2.43;2.17;;;;;;;22.15;26.93;94719.13;6135830;28;103126;-56
2022/03/07 08:27:38;;;;;;;2.93;2.63;;;;;;;22.15;26.77;94713.81;6136254;28;103046;-56
2022/03/07 08:30:40;;;;;;;2.77;2.57;;;;;;;22.14;27.14;94716.78;6135171;28;104263;-56
2022/03/07 08:33:42;;;;;;;2.67;2.47;;;;;;;22.13;27.04;94716.00;6128235;28;103012;-56
2022/03/07 08:36:44;;;;;;;2.77;2.57;;;;;;;22.14;26.99;94722.09;6135780;28;104184;-58
2022/03/07 08:39:46;;;;;;;2.93;2.63;;;;;;;22.12;27.23;94714.44;6135789;28;104030;-56
2022/03/07 08:42:49;;;;;;;3.80;3.30;;;;;;;22.13;26.97;94718.66;6129966;28;103439;-56
2022/03/07 08:45:53;;;;;;;3.10;2.40;;;;;;;22.11;26.78;94717.41;6135471;28;103183;-56
2022/03/07 08:48:58;;;;;;;2.70;2.50;;;;;;;22.11;26.92;94723.50;6135088;28;103149;-56
2022/03/07 08:51:59;;;;;;;2.63;2.43;;;;;;;22.09;27.03;94723.03;6134930;28;103424;-56
2022/03/07 08:55:01;;;;;;;2.23;2.13;;;;;;;22.12;26.85;94724.28;6130275;28;104378;-56
2022/03/07 08:58:03;;;;;;;2.50;2.30;;;;;;;22.11;26.74;94723.50;6134826;28;103067;-56
2022/03/07 09:01:05;;;;;;;2.73;2.53;;;;;;;22.10;26.94;94724.59;6134291;28;103098;-55
2022/03/07 09:04:07;;;;;;;2.90;2.70;;;;;;;22.11;26.81;94720.06;6133346;28;103224;-55
2022/03/07 09:07:09;;;;;;;2.40;2.30;;;;;;;22.09;26.89;94725.69;6128956;28;103238;-55
2022/03/07 09:10:11;;;;;;;2.50;2.30;;;;;;;22.08;26.84;94728.66;6134857;28;103169;-55
2022/03/07 09:13:13;;;;;;;2.67;2.47;;;;;;;22.09;27.02;94724.91;6135002;28;103458;-55
2022/03/07 09:16:15;;;;;;;2.93;2.73;;;;;;;22.09;26.87;94724.91;6129205;28;103101;-56
2022/03/07 09:19:17;;;;;;;2.50;2.40;;;;;;;22.08;27.06;94718.03;6133650;28;102961;-56
2022/03/07 09:22:19;;;;;;;2.60;2.40;;;;;;;22.07;26.71;94716.44;6133777;28;103189;-55
2022/03/07 09:25:21;;;;;;;2.60;2.43;;;;;;;22.06;26.88;94712.22;6135066;28;103964;-55
2022/03/07 09:28:23;;;;;;;2.87;2.67;;;;;;;22.07;26.87;94719.09;6128728;28;103112;-56
2022/03/07 09:31:25;;;;;;;2.87;2.67;;;;;;;22.05;26.80;94716.75;6134872;28;103586;-56
2022/03/07 09:34:27;;;;;;;2.87;2.67;;;;;;;22.06;26.94;94714.88;6133776;28;103348;-54
2022/03/07 09:37:29;;;;;;;3.03;2.83;;;;;;;22.06;26.73;94717.53;6130026;28;104167;-55
2022/03/07 09:40:31;;;;;;;2.60;2.40;;;;;;;22.06;26.65;94704.25;6132673;28;103118;-55
2022/03/07 09:43:32;;;;;;;2.90;2.70;;;;;;;22.06;27.01;94709.56;6134446;28;103300;-55
2022/03/07 09:46:35;;;;;;;3.00;2.80;;;;;;;22.07;26.89;94701.28;6134477;28;104089;-55
2022/03/07 09:49:37;;;;;;;3.07;2.87;;;;;;;22.06;26.73;94704.25;6128781;28;104246;-56
2022/03/07 09:52:42;;;;;;;3.70;3.40;;;;;;;22.08;27.04;94704.72;6133894;28;104045;-56
2022/03/07 09:55:45;;;;;;;2.87;2.67;;;;;;;22.07;26.82;94695.16;6133223;28;104350;-56
2022/03/07 09:58:47;;;;;;;4.17;3.13;;;;;;;22.08;26.96;94702.06;6133535;28;104262;-56
2022/03/07 10:02:01;;;;;;;3.20;3.00;;;;;;;22.08;26.93;94702.06;6129880;28;104083;-55
2022/03/07 10:05:04;;;;;;;2.77;2.57;;;;;;;22.09;26.93;94698.31;6132602;28;104271;-55
2022/03/07 10:08:08;;;;;;;2.87;2.67;;;;;;;22.09;26.80;94698.31;6134369;28;104077;-55
2022/03/07 10:11:10;;;;;;;3.57;3.27;;;;;;;22.09;26.77;94698.31;6128112;28;103148;-55
2022/03/07 10:14:13;;;;;;;3.30;3.10;;;;;;;22.07;26.96;94701.28;6133621;28;104470;-55
2022/03/07 10:17:20;;;;;;;3.47;3.17;;;;;;;22.08;26.88;94707.38;6133373;28;102992;-55
2022/03/07 10:20:25;;;;;;;3.10;2.90;;;;;;;22.08;26.96;94702.06;6133175;28;104401;-55
2022/03/07 10:23:27;;;;;;;3.20;3.00;;;;;;;22.08;26.98;94702.06;6128824;28;104025;-55
2022/03/07 10:26:34;;;;;;;2.87;2.67;;;;;;;22.09;26.89;94698.31;6133306;28;103489;-55
2022/03/07 10:29:47;;;;;;;3.07;2.87;;;;;;;22.10;26.84;94691.88;6132998;28;103225;-56
2022/03/07 10:33:01;;;;;;;3.13;2.93;;;;;;;22.10;26.83;94694.56;6128206;28;103018;-55
2022/03/07 10:36:03;;;;;;;2.70;2.50;;;;;;;22.09;26.77;94698.31;6132313;28;104042;-55
2022/03/07 10:39:08;;;;;;;2.83;2.63;;;;;;;22.09;26.99;94692.97;6133501;28;104253;-56
2022/03/07 10:42:14;;;;;;;3.60;3.30;;;;;;;22.08;26.88;94694.06;6132795;28;104195;-55
2022/03/07 10:45:16;;;;;;;3.30;3.00;;;;;;;22.10;26.88;94691.88;6127742;28;103163;-55
2022/03/07 10:48:20;;;;;;;3.70;2.90;;;;;;;22.09;27.06;94685.78;6133322;28;103119;-55
2022/03/07 10:51:22;;;;;;;3.20;3.00;;;;;;;22.11;27.30;94701.44;6132310;28;103044;-55
2022/03/07 10:54:24;;;;;;;3.43;3.17;;;;;;;22.10;26.75;94689.22;6133189;28;103033;-56
2022/03/07 10:57:25;;;;;;;5.47;5.07;;;;;;;22.05;27.24;94694.69;6132698;28;103056;-56
2022/03/07 11:00:27;;;;;;;9.30;8.60;;;;;;;22.05;27.47;94697.34;6137595;28;104258;-55
2022/03/07 11:03:33;;;;;;;10.70;9.80;;;;;;;22.06;27.49;94689.06;6137091;28;103538;-55
2022/03/07 11:06:38;;;;;;;10.13;9.33;;;;;;;22.05;27.30;94681.41;6131577;28;104061;-55
2022/03/07 11:09:40;;;;;;;9.90;9.10;;;;;;;22.05;27.10;94679.50;6137821;28;103473;-55
2022/03/07 11:12:43;;;;;;;9.73;8.90;;;;;;;22.06;27.39;94675.75;6136941;28;103168;-55
2022/03/07 11:15:47;;;;;;;9.67;8.90;;;;;;;22.06;27.25;94682.97;6137283;28;104152;-55
2022/03/07 11:18:53;;;;;;;8.83;8.03;;;;;;;22.05;27.23;94671.53;6130330;28;104320;-55
2022/03/07 11:22:03;;;;;;;8.80;8.10;;;;;;;22.05;27.26;94670.75;6137235;28;104076;-55
2022/03/07 11:25:08;;;;;;;8.30;7.70;;;;;;;22.05;27.25;94674.19;6137206;28;104096;-55
2022/03/07 11:28:11;;;;;;;11.20;10.23;;;;;;;22.05;27.47;94676.84;6131668;28;103260;-55
2022/03/07 11:31:23;;;;;;;9.70;8.90;;;;;;;22.04;27.40;94671.81;6136143;28;103259;-55
2022/03/07 11:34:25;;;;;;;9.60;8.80;;;;;;;22.04;27.13;94669.94;6136034;28;103181;-56
2022/03/07 11:37:32;;;;;;;9.80;9.00;;;;;;;22.04;27.34;94666.50;6136633;28;103548;-55
2022/03/07 11:40:34;;;;;;;8.40;7.70;;;;;;;22.03;27.23;94664.94;6131379;28;103108;-55
2022/03/07 11:43:56;;;;;;;13.30;12.10;;;;;;;22.03;27.32;94656.94;6136676;28;104225;-55
2022/03/07 11:47:07;;;;;;;11.27;10.30;;;;;;;22.00;27.29;94663.63;6134922;28;103250;-55
2022/03/07 11:50:09;;;;;;;14.13;13.03;;;;;;;21.96;27.57;94651.28;6130873;28;103128;-55
2022/03/07 11:53:14;;;;;;;15.90;14.60;;;;;;;;;;6136313;28;103133;-55
2022/03/07 11:56:25;;;;;;;21.30;19.40;;;;;;;21.97;28.14;94652.84;6136360;28;103985;-59
2022/03/07 11:59:30;;;;;;;18.00;16.50;;;;;;;21.99;27.80;94645.34;6137683;28;102990;-56
2022/03/07 12:02:41;;;;;;;16.90;15.53;;;;;;;22.01;28.19;94643.16;6130698;28;104015;-57
2022/03/07 12:05:44;;;;;;;17.87;16.27;;;;;;;22.00;28.05;94645.03;6135735;28;104101;-56
2022/03/07 12:08:53;;;;;;;17.27;15.77;;;;;;;22.01;27.56;94635.19;6135316;28;104247;-57
2022/03/07 12:12:09;;;;;;;15.80;14.50;;;;;;;22.03;27.77;94630.34;6130960;28;103136;-56
2022/03/07 12:15:13;;;;;;;15.60;14.40;;;;;;;22.02;27.54;94623.47;6136820;28;103305;-56
2022/03/07 12:18:16;;;;;;;15.77;14.57;;;;;;;22.03;27.62;94622.38;6135293;28;103809;-56
2022/03/07 12:21:25;;;;;;;15.30;14.00;;;;;;;22.01;27.75;94620.00;6135506;28;103275;-58
2022/03/07 12:24:27;;;;;;;14.50;13.33;;;;;;;22.03;27.69;94615.16;6130983;28;104541;-56
2022/03/07 12:27:33;;;;;;;14.37;13.17;;;;;;;22.03;27.58;94620.50;6136164;28;103341;-57
2022/03/07 12:30:35;;;;;;;14.57;13.17;;;;;;;22.04;27.53;94621.28;6136161;28;104011;-56
2022/03/07 12:33:38;;;;;;;13.77;12.60;;;;;;;22.03;27.49;94631.13;6131932;28;103180;-56
2022/03/07 12:37:11;;;;;;;13.67;12.57;;;;;;;22.02;27.35;94628.78;6134728;28;103634;-56
2022/03/07 12:40:12;;;;;;;12.93;11.97;;;;;;;22.02;27.27;94634.09;6134548;28;103240;-56
2022/03/07 12:43:20;;;;;;;14.33;13.13;;;;;;;22.04;27.42;94637.22;6135724;28;103257;-56
2022/03/07 12:46:22;;;;;;;12.43;11.43;;;;;;;22.03;27.34;94636.44;6129881;28;103200;-56
2022/03/07 12:49:25;;;;;;;12.30;11.30;;;;;;;22.03;27.32;94638.31;6135262;28;103400;-56
2022/03/07 12:52:36;;;;;;;11.83;10.83;;;;;;;22.02;27.45;94639.41;6135399;28;104080;-56
2022/03/07 12:55:38;;;;;;;11.70;10.80;;;;;;;22.03;27.17;94639.09;6133548;28;103447;-55
2022/03/07 12:58:54;;;;;;;12.10;11.20;;;;;;;22.03;27.35;94631.13;6132641;28;103366;-56
2022/03/07 13:01:57;;;;;;;10.63;9.87;;;;;;;22.03;27.25;94630.34;6135105;28;103919;-56
2022/03/07 13:04:59;;;;;;;11.10;10.20;;;;;;;22.03;27.28;94633.00;6134358;28;103106;-56
2022/03/07 13:08:03;;;;;;;11.40;10.60;;;;;;;22.03;27.21;94638.31;6129961;28;105561;-56
2022/03/07 13:11:05;;;;;;;9.83;9.13;;;;;;;22.02;27.33;94634.09;6134201;28;104610;-56
2022/03/07 13:14:08;;;;;;;11.33;10.43;;;;;;;22.01;27.47;94633.31;6134583;28;103286;-56
2022/03/07 13:17:14;;;;;;;12.10;11.10;;;;;;;22.01;27.24;94633.31;6133945;28;103049;-56
2022/03/07 13:20:23;;;;;;;11.63;10.67;;;;;;;22.01;27.50;94635.19;6111087;28;103001;-56
2022/03/07 13:23:29;;;;;;;10.43;9.60;;;;;;;22.00;27.32;94636.25;6134581;28;103970;-55
2022/03/07 13:26:32;;;;;;;10.53;9.73;;;;;;;22.00;27.23;94642.38;6134737;28;102979;-55
2022/03/07 13:29:37;;;;;;;10.27;9.40;;;;;;;22.01;27.44;94640.50;6132299;28;103348;-55
2022/03/07 13:32:41;;;;;;;9.97;9.17;;;;;;;22.00;27.43;94638.91;6132431;28;103332;-55
2022/03/07 13:35:43;;;;;;;10.83;9.93;;;;;;;22.00;27.28;94630.94;6134581;28;104181;-56
2022/03/07 13:38:45;;;;;;;10.40;9.70;;;;;;;21.99;27.55;94638.13;6134219;28;104056;-55
2022/03/07 13:42:13;;;;;;;8.97;8.27;;;;;;;22.01;27.25;94630.66;6127761;28;104391;-56
2022/03/07 13:45:16;;;;;;;10.77;9.97;;;;;;;22.01;27.34;94640.50;6125604;28;103383;-55
2022/03/07 13:48:20;;;;;;;9.37;8.67;;;;;;;22.00;27.36;94631.72;6133945;28;103342;-55
2022/03/07 13:51:29;;;;;;;9.50;8.80;;;;;;;22.01;27.32;94635.19;6129038;28;103021;-56
2022/03/07 13:54:38;;;;;;;9.90;9.10;;;;;;;22.00;27.34;94636.25;6134059;28;103559;-54
2022/03/07 13:58:00;;;;;;;9.90;9.10;;;;;;;22.00;27.15;94631.72;6134961;28;104260;-56
2022/03/07 14:01:03;;;;;;;9.23;8.53;;;;;;;21.98;27.44;94625.16;6133619;28;103068;-55
2022/03/07 14:04:25;;;;;;;8.80;8.10;;;;;;;22.00;27.15;94623.75;6128496;28;103396;-55
2022/03/07 14:07:29;;;;;;;8.90;8.20;;;;;;;22.01;27.14;94619.22;6133636;28;103036;-56
2022/03/07 14:10:37;;;;;;;8.57;7.87;;;;;;;21.99;27.09;94622.19;6133598;28;103124;-56